sensor_id;sensor_type;location;lat;lon;timestamp;P1;durP1;ratioP1;P2;durP2;ratioP2
74124;SDS011;62475;52.192;5.396;2022-11-15T00:02:02;51.42;;;18.63;;
74124;SDS011;62475;52.192;5.396;2022-11-15T00:04:29;40.70;;;16.15;;
74124;SDS011;62475;52.192;5.396;2022-11-15T00:06:55;54.53;;;18.08;;
74124;SDS011;62475;52.192;5.396;2022-11-15T00:09:20;53.57;;;19.40;;
74124;SDS011;62475;52.192;5.396;2022-11-15T00:11:45;46.47;;;17.30;;
74124;SDS011;62475;52.192;5.396;2022-11-15T00:14:10;52.10;;;19.13;;
74124;SDS011;62475;52.192;5.396;2022-11-15T00:16:36;50.70;;;18.92;;
74124;SDS011;62475;52.192;5.396;2022-11-15T00:19:01;44.60;;;18.05;;
74124;SDS011;62475;52.192;5.396;2022-11-15T00:21:27;44.85;;;17.25;;
74124;SDS011;62475;52.192;5.396;2022-11-15T00:23:52;53.63;;;18.33;;
74124;SDS011;62475;52.192;5.396;2022-11-15T00:26:17;48.15;;;18.38;;
74124;SDS011;62475;52.192;5.396;2022-11-15T00:28:43;57.20;;;18.65;;
74124;SDS011;62475;52.192;5.396;2022-11-15T00:31:09;56.75;;;19.17;;
74124;SDS011;62475;52.192;5.396;2022-11-15T00:33:39;75.70;;;24.73;;
74124;SDS011;62475;52.192;5.396;2022-11-15T00:36:05;65.10;;;20.87;;
74124;SDS011;62475;52.192;5.396;2022-11-15T00:38:32;68.30;;;22.63;;
74124;SDS011;62475;52.192;5.396;2022-11-15T00:40:58;96.68;;;25.83;;
74124;SDS011;62475;52.192;5.396;2022-11-15T00:43:24;86.10;;;24.38;;
74124;SDS011;62475;52.192;5.396;2022-11-15T00:45:49;84.95;;;26.50;;
74124;SDS011;62475;52.192;5.396;2022-11-15T00:48:14;82.43;;;25.90;;
74124;SDS011;62475;52.192;5.396;2022-11-15T00:50:40;87.57;;;26.95;;
74124;SDS011;62475;52.192;5.396;2022-11-15T00:53:05;107.90;;;27.58;;
74124;SDS011;62475;52.192;5.396;2022-11-15T00:55:30;111.60;;;28.58;;
74124;SDS011;62475;52.192;5.396;2022-11-15T00:57:56;105.67;;;28.73;;
74124;SDS011;62475;52.192;5.396;2022-11-15T01:00:21;96.93;;;27.50;;
74124;SDS011;62475;52.192;5.396;2022-11-15T01:02:47;98.75;;;27.77;;
74124;SDS011;62475;52.192;5.396;2022-11-15T01:05:12;110.00;;;30.30;;
74124;SDS011;62475;52.192;5.396;2022-11-15T01:07:37;104.53;;;29.23;;
74124;SDS011;62475;52.192;5.396;2022-11-15T01:10:04;109.00;;;29.75;;
74124;SDS011;62475;52.192;5.396;2022-11-15T01:12:30;104.38;;;29.98;;
74124;SDS011;62475;52.192;5.396;2022-11-15T01:14:55;112.30;;;29.25;;
74124;SDS011;62475;52.192;5.396;2022-11-15T01:17:20;110.23;;;28.87;;
74124;SDS011;62475;52.192;5.396;2022-11-15T01:19:45;117.30;;;30.38;;
74124;SDS011;62475;52.192;5.396;2022-11-15T01:22:11;99.65;;;26.83;;
74124;SDS011;62475;52.192;5.396;2022-11-15T01:24:37;103.57;;;28.88;;
74124;SDS011;62475;52.192;5.396;2022-11-15T01:27:02;107.80;;;28.13;;
74124;SDS011;62475;52.192;5.396;2022-11-15T01:29:28;105.00;;;29.23;;
74124;SDS011;62475;52.192;5.396;2022-11-15T01:31:53;105.78;;;30.83;;
74124;SDS011;62475;52.192;5.396;2022-11-15T01:34:19;104.07;;;28.23;;
74124;SDS011;62475;52.192;5.396;2022-11-15T01:36:44;105.68;;;29.08;;
74124;SDS011;62475;52.192;5.396;2022-11-15T01:39:09;102.80;;;29.13;;
74124;SDS011;62475;52.192;5.396;2022-11-15T01:41:35;97.45;;;30.40;;
74124;SDS011;62475;52.192;5.396;2022-11-15T01:46:53;101.88;;;28.77;;
74124;SDS011;62475;52.192;5.396;2022-11-15T01:49:20;104.85;;;30.05;;
74124;SDS011;62475;52.192;5.396;2022-11-15T01:51:47;104.82;;;30.50;;
74124;SDS011;62475;52.192;5.396;2022-11-15T01:54:14;101.95;;;30.80;;
74124;SDS011;62475;52.192;5.396;2022-11-15T01:56:43;89.97;;;28.05;;
74124;SDS011;62475;52.192;5.396;2022-11-15T01:59:23;96.72;;;29.83;;
74124;SDS011;62475;52.192;5.396;2022-11-15T02:01:49;99.47;;;29.63;;
74124;SDS011;62475;52.192;5.396;2022-11-15T02:04:24;87.32;;;29.48;;
74124;SDS011;62475;52.192;5.396;2022-11-15T02:06:53;100.55;;;29.75;;
74124;SDS011;62475;52.192;5.396;2022-11-15T02:09:18;106.10;;;30.05;;
74124;SDS011;62475;52.192;5.396;2022-11-15T02:11:44;94.88;;;29.25;;
74124;SDS011;62475;52.192;5.396;2022-11-15T02:14:11;97.43;;;29.92;;
74124;SDS011;62475;52.192;5.396;2022-11-15T02:16:42;94.00;;;29.63;;
74124;SDS011;62475;52.192;5.396;2022-11-15T02:28:16;86.82;;;27.83;;
74124;SDS011;62475;52.192;5.396;2022-11-15T02:34:11;83.95;;;27.52;;
74124;SDS011;62475;52.192;5.396;2022-11-15T02:36:42;81.95;;;28.25;;
74124;SDS011;62475;52.192;5.396;2022-11-15T02:39:17;92.72;;;32.13;;
74124;SDS011;62475;52.192;5.396;2022-11-15T02:42:26;74.63;;;27.02;;
74124;SDS011;62475;52.192;5.396;2022-11-15T02:45:09;84.57;;;29.42;;
74124;SDS011;62475;52.192;5.396;2022-11-15T02:47:41;82.47;;;28.70;;
74124;SDS011;62475;52.192;5.396;2022-11-15T02:50:10;76.97;;;27.73;;
74124;SDS011;62475;52.192;5.396;2022-11-15T02:52:39;77.70;;;27.95;;
74124;SDS011;62475;52.192;5.396;2022-11-15T02:55:04;81.73;;;28.57;;
74124;SDS011;62475;52.192;5.396;2022-11-15T02:57:45;76.88;;;27.52;;
74124;SDS011;62475;52.192;5.396;2022-11-15T03:00:20;79.72;;;26.95;;
74124;SDS011;62475;52.192;5.396;2022-11-15T03:02:54;79.47;;;29.55;;
74124;SDS011;62475;52.192;5.396;2022-11-15T03:08:31;65.93;;;25.88;;
74124;SDS011;62475;52.192;5.396;2022-11-15T03:11:09;86.90;;;29.05;;
74124;SDS011;62475;52.192;5.396;2022-11-15T03:16:30;75.43;;;27.67;;
74124;SDS011;62475;52.192;5.396;2022-11-15T03:19:06;72.32;;;26.85;;
74124;SDS011;62475;52.192;5.396;2022-11-15T03:21:39;85.85;;;28.88;;
74124;SDS011;62475;52.192;5.396;2022-11-15T03:24:05;78.60;;;28.83;;
74124;SDS011;62475;52.192;5.396;2022-11-15T03:26:33;81.15;;;28.85;;
74124;SDS011;62475;52.192;5.396;2022-11-15T03:29:04;72.57;;;27.38;;
74124;SDS011;62475;52.192;5.396;2022-11-15T03:31:37;76.15;;;27.05;;
74124;SDS011;62475;52.192;5.396;2022-11-15T03:34:20;71.97;;;28.40;;
74124;SDS011;62475;52.192;5.396;2022-11-15T03:36:56;77.75;;;26.85;;
74124;SDS011;62475;52.192;5.396;2022-11-15T03:39:22;81.63;;;28.40;;
74124;SDS011;62475;52.192;5.396;2022-11-15T03:44:32;79.72;;;27.75;;
74124;SDS011;62475;52.192;5.396;2022-11-15T03:50:07;70.07;;;25.63;;
74124;SDS011;62475;52.192;5.396;2022-11-15T03:52:36;75.50;;;28.17;;
74124;SDS011;62475;52.192;5.396;2022-11-15T03:55:03;68.53;;;26.38;;
74124;SDS011;62475;52.192;5.396;2022-11-15T03:57:30;74.10;;;26.17;;
74124;SDS011;62475;52.192;5.396;2022-11-15T03:59:56;62.25;;;24.90;;
74124;SDS011;62475;52.192;5.396;2022-11-15T04:02:21;69.65;;;25.83;;
74124;SDS011;62475;52.192;5.396;2022-11-15T04:04:46;69.10;;;27.52;;
74124;SDS011;62475;52.192;5.396;2022-11-15T04:07:12;70.97;;;28.10;;
74124;SDS011;62475;52.192;5.396;2022-11-15T04:09:37;69.97;;;27.00;;
74124;SDS011;62475;52.192;5.396;2022-11-15T04:12:22;62.35;;;26.13;;
74124;SDS011;62475;52.192;5.396;2022-11-15T04:14:55;55.55;;;25.13;;
74124;SDS011;62475;52.192;5.396;2022-11-15T04:17:38;67.43;;;26.60;;
74124;SDS011;62475;52.192;5.396;2022-11-15T04:20:04;58.75;;;23.70;;
74124;SDS011;62475;52.192;5.396;2022-11-15T04:22:51;67.85;;;24.02;;
74124;SDS011;62475;52.192;5.396;2022-11-15T04:25:36;59.10;;;25.15;;
74124;SDS011;62475;52.192;5.396;2022-11-15T04:28:02;58.22;;;24.02;;
74124;SDS011;62475;52.192;5.396;2022-11-15T04:30:27;55.70;;;24.98;;
74124;SDS011;62475;52.192;5.396;2022-11-15T04:32:52;63.57;;;26.43;;
74124;SDS011;62475;52.192;5.396;2022-11-15T04:35:18;58.80;;;24.48;;
74124;SDS011;62475;52.192;5.396;2022-11-15T04:37:43;55.92;;;23.65;;
74124;SDS011;62475;52.192;5.396;2022-11-15T04:40:09;59.80;;;24.17;;
74124;SDS011;62475;52.192;5.396;2022-11-15T04:42:34;58.15;;;24.25;;
74124;SDS011;62475;52.192;5.396;2022-11-15T04:44:59;55.47;;;23.07;;
74124;SDS011;62475;52.192;5.396;2022-11-15T04:47:25;59.20;;;26.65;;
74124;SDS011;62475;52.192;5.396;2022-11-15T04:49:50;53.45;;;23.55;;
74124;SDS011;62475;52.192;5.396;2022-11-15T04:52:15;61.77;;;24.50;;
74124;SDS011;62475;52.192;5.396;2022-11-15T04:54:40;55.60;;;25.10;;
74124;SDS011;62475;52.192;5.396;2022-11-15T04:57:07;53.83;;;23.75;;
74124;SDS011;62475;52.192;5.396;2022-11-15T04:59:32;54.90;;;23.35;;
74124;SDS011;62475;52.192;5.396;2022-11-15T05:01:58;49.65;;;23.23;;
74124;SDS011;62475;52.192;5.396;2022-11-15T05:04:23;53.80;;;22.70;;
74124;SDS011;62475;52.192;5.396;2022-11-15T05:06:49;51.20;;;22.00;;
74124;SDS011;62475;52.192;5.396;2022-11-15T05:09:16;52.63;;;22.73;;
74124;SDS011;62475;52.192;5.396;2022-11-15T05:11:42;51.80;;;23.33;;
74124;SDS011;62475;52.192;5.396;2022-11-15T05:14:07;48.72;;;22.25;;
74124;SDS011;62475;52.192;5.396;2022-11-15T05:16:32;47.33;;;21.97;;
74124;SDS011;62475;52.192;5.396;2022-11-15T05:18:58;53.28;;;22.90;;
74124;SDS011;62475;52.192;5.396;2022-11-15T05:21:23;46.80;;;21.27;;
74124;SDS011;62475;52.192;5.396;2022-11-15T05:23:48;44.45;;;20.92;;
74124;SDS011;62475;52.192;5.396;2022-11-15T05:26:14;46.30;;;20.38;;
74124;SDS011;62475;52.192;5.396;2022-11-15T05:28:41;50.58;;;21.05;;
74124;SDS011;62475;52.192;5.396;2022-11-15T05:31:10;44.10;;;20.25;;
74124;SDS011;62475;52.192;5.396;2022-11-15T05:33:40;41.35;;;21.00;;
74124;SDS011;62475;52.192;5.396;2022-11-15T05:37:08;55.22;;;22.90;;
74124;SDS011;62475;52.192;5.396;2022-11-15T05:39:04;50.65;;;22.10;;
74124;SDS011;62475;52.192;5.396;2022-11-15T05:41:39;50.67;;;21.27;;
74124;SDS011;62475;52.192;5.396;2022-11-15T05:44:09;49.22;;;21.65;;
74124;SDS011;62475;52.192;5.396;2022-11-15T05:46:36;47.50;;;21.88;;
74124;SDS011;62475;52.192;5.396;2022-11-15T05:49:04;45.47;;;20.95;;
74124;SDS011;62475;52.192;5.396;2022-11-15T05:51:32;48.17;;;22.25;;
74124;SDS011;62475;52.192;5.396;2022-11-15T05:53:58;42.63;;;20.85;;
74124;SDS011;62475;52.192;5.396;2022-11-15T05:56:24;49.90;;;21.80;;
74124;SDS011;62475;52.192;5.396;2022-11-15T05:58:51;46.75;;;21.90;;
74124;SDS011;62475;52.192;5.396;2022-11-15T06:01:18;46.47;;;22.02;;
74124;SDS011;62475;52.192;5.396;2022-11-15T06:03:43;46.33;;;21.58;;
74124;SDS011;62475;52.192;5.396;2022-11-15T06:06:08;45.28;;;21.30;;
74124;SDS011;62475;52.192;5.396;2022-11-15T06:08:34;45.20;;;20.80;;
74124;SDS011;62475;52.192;5.396;2022-11-15T06:11:03;58.80;;;22.25;;
74124;SDS011;62475;52.192;5.396;2022-11-15T06:13:29;45.88;;;22.13;;
74124;SDS011;62475;52.192;5.396;2022-11-15T06:15:55;51.67;;;20.40;;
74124;SDS011;62475;52.192;5.396;2022-11-15T06:18:21;45.05;;;21.02;;
74124;SDS011;62475;52.192;5.396;2022-11-15T06:20:46;47.17;;;21.00;;
74124;SDS011;62475;52.192;5.396;2022-11-15T06:23:12;47.17;;;22.15;;
74124;SDS011;62475;52.192;5.396;2022-11-15T06:25:38;46.97;;;21.45;;
74124;SDS011;62475;52.192;5.396;2022-11-15T06:28:03;47.58;;;20.85;;
74124;SDS011;62475;52.192;5.396;2022-11-15T06:30:29;44.88;;;21.17;;
74124;SDS011;62475;52.192;5.396;2022-11-15T06:33:00;49.85;;;22.05;;
74124;SDS011;62475;52.192;5.396;2022-11-15T06:35:27;42.97;;;20.27;;
74124;SDS011;62475;52.192;5.396;2022-11-15T06:37:53;45.80;;;19.08;;
74124;SDS011;62475;52.192;5.396;2022-11-15T06:40:18;44.63;;;21.80;;
74124;SDS011;62475;52.192;5.396;2022-11-15T06:42:44;43.85;;;20.02;;
74124;SDS011;62475;52.192;5.396;2022-11-15T06:45:09;38.83;;;18.70;;
74124;SDS011;62475;52.192;5.396;2022-11-15T06:47:35;42.92;;;20.60;;
74124;SDS011;62475;52.192;5.396;2022-11-15T06:50:00;42.97;;;19.50;;
74124;SDS011;62475;52.192;5.396;2022-11-15T06:52:25;35.05;;;18.73;;
74124;SDS011;62475;52.192;5.396;2022-11-15T06:54:51;38.25;;;18.98;;
74124;SDS011;62475;52.192;5.396;2022-11-15T06:57:16;43.13;;;18.77;;
74124;SDS011;62475;52.192;5.396;2022-11-15T06:59:41;40.17;;;19.63;;
74124;SDS011;62475;52.192;5.396;2022-11-15T07:02:11;41.63;;;20.60;;
74124;SDS011;62475;52.192;5.396;2022-11-15T07:04:37;44.95;;;21.13;;
74124;SDS011;62475;52.192;5.396;2022-11-15T07:07:02;48.65;;;20.27;;
74124;SDS011;62475;52.192;5.396;2022-11-15T07:09:28;46.15;;;20.08;;
74124;SDS011;62475;52.192;5.396;2022-11-15T07:11:53;50.67;;;23.37;;
74124;SDS011;62475;52.192;5.396;2022-11-15T07:14:18;48.13;;;21.87;;
74124;SDS011;62475;52.192;5.396;2022-11-15T07:16:43;50.08;;;21.67;;
74124;SDS011;62475;52.192;5.396;2022-11-15T07:19:09;49.80;;;20.67;;
74124;SDS011;62475;52.192;5.396;2022-11-15T07:21:34;41.03;;;20.20;;
74124;SDS011;62475;52.192;5.396;2022-11-15T07:24:00;45.28;;;19.00;;
74124;SDS011;62475;52.192;5.396;2022-11-15T07:26:25;44.87;;;20.47;;
74124;SDS011;62475;52.192;5.396;2022-11-15T07:28:50;41.07;;;20.20;;
74124;SDS011;62475;52.192;5.396;2022-11-15T07:31:16;43.27;;;20.13;;
74124;SDS011;62475;52.192;5.396;2022-11-15T07:33:41;39.83;;;19.80;;
74124;SDS011;62475;52.192;5.396;2022-11-15T07:36:06;44.55;;;20.73;;
74124;SDS011;62475;52.192;5.396;2022-11-15T07:38:33;42.60;;;19.02;;
74124;SDS011;62475;52.192;5.396;2022-11-15T07:41:00;43.25;;;19.50;;
74124;SDS011;62475;52.192;5.396;2022-11-15T07:43:27;41.85;;;18.63;;
74124;SDS011;62475;52.192;5.396;2022-11-15T07:45:53;40.13;;;19.73;;
74124;SDS011;62475;52.192;5.396;2022-11-15T07:48:18;40.15;;;17.85;;
74124;SDS011;62475;52.192;5.396;2022-11-15T07:50:44;39.08;;;19.55;;
74124;SDS011;62475;52.192;5.396;2022-11-15T07:53:10;39.83;;;17.73;;
74124;SDS011;62475;52.192;5.396;2022-11-15T07:55:35;36.97;;;17.15;;
74124;SDS011;62475;52.192;5.396;2022-11-15T07:58:04;38.53;;;17.23;;
74124;SDS011;62475;52.192;5.396;2022-11-15T08:00:31;35.45;;;17.08;;
74124;SDS011;62475;52.192;5.396;2022-11-15T08:03:16;36.50;;;17.60;;
74124;SDS011;62475;52.192;5.396;2022-11-15T08:05:42;32.00;;;16.13;;
74124;SDS011;62475;52.192;5.396;2022-11-15T08:08:11;33.33;;;16.73;;
74124;SDS011;62475;52.192;5.396;2022-11-15T08:10:37;29.15;;;15.85;;
74124;SDS011;62475;52.192;5.396;2022-11-15T08:13:06;31.23;;;15.90;;
74124;SDS011;62475;52.192;5.396;2022-11-15T08:15:33;37.95;;;15.93;;
74124;SDS011;62475;52.192;5.396;2022-11-15T08:18:00;31.25;;;15.20;;
74124;SDS011;62475;52.192;5.396;2022-11-15T08:20:28;32.63;;;15.43;;
74124;SDS011;62475;52.192;5.396;2022-11-15T08:22:57;32.53;;;14.85;;
74124;SDS011;62475;52.192;5.396;2022-11-15T08:27:51;34.35;;;15.07;;
74124;SDS011;62475;52.192;5.396;2022-11-15T08:30:18;30.52;;;14.52;;
74124;SDS011;62475;52.192;5.396;2022-11-15T08:32:43;32.42;;;14.80;;
74124;SDS011;62475;52.192;5.396;2022-11-15T08:35:09;30.85;;;14.18;;
74124;SDS011;62475;52.192;5.396;2022-11-15T08:37:34;26.02;;;13.23;;
74124;SDS011;62475;52.192;5.396;2022-11-15T08:40:00;28.00;;;13.90;;
74124;SDS011;62475;52.192;5.396;2022-11-15T08:42:25;27.00;;;12.82;;
74124;SDS011;62475;52.192;5.396;2022-11-15T08:44:51;28.35;;;12.95;;
74124;SDS011;62475;52.192;5.396;2022-11-15T08:47:16;27.67;;;12.87;;
74124;SDS011;62475;52.192;5.396;2022-11-15T08:49:42;26.38;;;12.48;;
74124;SDS011;62475;52.192;5.396;2022-11-15T08:52:07;25.35;;;12.65;;
74124;SDS011;62475;52.192;5.396;2022-11-15T08:54:32;24.35;;;12.55;;
74124;SDS011;62475;52.192;5.396;2022-11-15T08:56:58;25.15;;;11.43;;
74124;SDS011;62475;52.192;5.396;2022-11-15T08:59:26;24.55;;;12.65;;
74124;SDS011;62475;52.192;5.396;2022-11-15T09:01:51;21.92;;;11.70;;
74124;SDS011;62475;52.192;5.396;2022-11-15T09:04:19;22.00;;;11.68;;
74124;SDS011;62475;52.192;5.396;2022-11-15T09:06:44;24.70;;;11.93;;
74124;SDS011;62475;52.192;5.396;2022-11-15T09:09:10;27.38;;;12.98;;
74124;SDS011;62475;52.192;5.396;2022-11-15T09:11:35;22.93;;;12.90;;
74124;SDS011;62475;52.192;5.396;2022-11-15T09:14:00;24.23;;;10.85;;
74124;SDS011;62475;52.192;5.396;2022-11-15T09:16:26;25.87;;;12.20;;
74124;SDS011;62475;52.192;5.396;2022-11-15T09:18:52;25.00;;;11.55;;
74124;SDS011;62475;52.192;5.396;2022-11-15T09:21:18;26.13;;;12.23;;
74124;SDS011;62475;52.192;5.396;2022-11-15T09:23:43;25.33;;;11.90;;
74124;SDS011;62475;52.192;5.396;2022-11-15T09:26:08;23.17;;;11.85;;
74124;SDS011;62475;52.192;5.396;2022-11-15T09:28:34;24.15;;;12.00;;
74124;SDS011;62475;52.192;5.396;2022-11-15T09:31:02;20.30;;;11.48;;
74124;SDS011;62475;52.192;5.396;2022-11-15T09:33:29;22.60;;;12.18;;
74124;SDS011;62475;52.192;5.396;2022-11-15T09:35:59;26.00;;;12.38;;
74124;SDS011;62475;52.192;5.396;2022-11-15T09:38:26;20.05;;;11.27;;
74124;SDS011;62475;52.192;5.396;2022-11-15T09:40:53;21.20;;;11.25;;
74124;SDS011;62475;52.192;5.396;2022-11-15T09:43:40;16.30;;;8.75;;
74124;SDS011;62475;52.192;5.396;2022-11-15T09:46:40;19.58;;;9.90;;
74124;SDS011;62475;52.192;5.396;2022-11-15T09:49:16;16.38;;;8.45;;
74124;SDS011;62475;52.192;5.396;2022-11-15T09:51:45;17.70;;;8.52;;
74124;SDS011;62475;52.192;5.396;2022-11-15T09:54:30;14.60;;;7.43;;
74124;SDS011;62475;52.192;5.396;2022-11-15T09:57:11;13.48;;;7.72;;
74124;SDS011;62475;52.192;5.396;2022-11-15T10:05:12;10.57;;;6.30;;
74124;SDS011;62475;52.192;5.396;2022-11-15T10:10:13;10.52;;;5.68;;
74124;SDS011;62475;52.192;5.396;2022-11-15T10:12:50;13.73;;;5.70;;
74124;SDS011;62475;52.192;5.396;2022-11-15T10:15:18;9.80;;;5.95;;
74124;SDS011;62475;52.192;5.396;2022-11-15T10:17:56;11.13;;;5.88;;
74124;SDS011;62475;52.192;5.396;2022-11-15T10:20:31;7.43;;;4.90;;
74124;SDS011;62475;52.192;5.396;2022-11-15T10:23:10;9.05;;;5.55;;
74124;SDS011;62475;52.192;5.396;2022-11-15T10:25:38;7.82;;;4.78;;
74124;SDS011;62475;52.192;5.396;2022-11-15T10:30:39;9.57;;;4.63;;
74124;SDS011;62475;52.192;5.396;2022-11-15T10:33:13;11.57;;;5.00;;
74124;SDS011;62475;52.192;5.396;2022-11-15T10:35:46;9.13;;;4.85;;
74124;SDS011;62475;52.192;5.396;2022-11-15T10:38:11;7.55;;;3.90;;
74124;SDS011;62475;52.192;5.396;2022-11-15T10:40:38;6.53;;;3.70;;
74124;SDS011;62475;52.192;5.396;2022-11-15T10:45:41;7.95;;;4.63;;
74124;SDS011;62475;52.192;5.396;2022-11-15T10:50:38;5.40;;;2.88;;
74124;SDS011;62475;52.192;5.396;2022-11-15T10:53:12;5.05;;;3.38;;
74124;SDS011;62475;52.192;5.396;2022-11-15T10:55:40;6.97;;;2.90;;
74124;SDS011;62475;52.192;5.396;2022-11-15T11:01:11;8.60;;;3.33;;
74124;SDS011;62475;52.192;5.396;2022-11-15T11:03:42;4.38;;;2.80;;
74124;SDS011;62475;52.192;5.396;2022-11-15T11:08:55;8.75;;;2.97;;
74124;SDS011;62475;52.192;5.396;2022-11-15T11:11:22;3.88;;;2.80;;
74124;SDS011;62475;52.192;5.396;2022-11-15T11:13:47;4.35;;;3.08;;
74124;SDS011;62475;52.192;5.396;2022-11-15T11:18:42;5.70;;;2.60;;
74124;SDS011;62475;52.192;5.396;2022-11-15T11:24:25;3.88;;;2.30;;
74124;SDS011;62475;52.192;5.396;2022-11-15T11:35:32;5.05;;;2.25;;
74124;SDS011;62475;52.192;5.396;2022-11-15T11:38:39;2.83;;;2.20;;
74124;SDS011;62475;52.192;5.396;2022-11-15T11:55:02;4.10;;;2.45;;
74124;SDS011;62475;52.192;5.396;2022-11-15T11:57:34;4.53;;;2.10;;
74124;SDS011;62475;52.192;5.396;2022-11-15T12:00:21;4.78;;;2.40;;
74124;SDS011;62475;52.192;5.396;2022-11-15T12:05:30;5.03;;;2.00;;
74124;SDS011;62475;52.192;5.396;2022-11-15T12:11:13;2.95;;;1.73;;
74124;SDS011;62475;52.192;5.396;2022-11-15T12:13:45;4.78;;;1.70;;
74124;SDS011;62475;52.192;5.396;2022-11-15T12:18:53;5.43;;;1.70;;
74124;SDS011;62475;52.192;5.396;2022-11-15T12:21:21;4.78;;;1.70;;
74124;SDS011;62475;52.192;5.396;2022-11-15T12:24:04;2.47;;;1.27;;
74124;SDS011;62475;52.192;5.396;2022-11-15T12:26:38;5.38;;;1.27;;
74124;SDS011;62475;52.192;5.396;2022-11-15T12:29:20;2.58;;;1.00;;
74124;SDS011;62475;52.192;5.396;2022-11-15T12:31:56;3.17;;;1.00;;
74124;SDS011;62475;52.192;5.396;2022-11-15T12:36:52;4.93;;;1.08;;
74124;SDS011;62475;52.192;5.396;2022-11-15T12:39:18;4.00;;;1.00;;
74124;SDS011;62475;52.192;5.396;2022-11-15T13:02:20;2.03;;;0.82;;
74124;SDS011;62475;52.192;5.396;2022-11-15T13:04:46;8.68;;;1.13;;
74124;SDS011;62475;52.192;5.396;2022-11-15T13:10:00;12.43;;;1.80;;
74124;SDS011;62475;52.192;5.396;2022-11-15T13:17:37;3.87;;;1.20;;
74124;SDS011;62475;52.192;5.396;2022-11-15T13:22:39;4.30;;;1.35;;
74124;SDS011;62475;52.192;5.396;2022-11-15T13:33:23;3.25;;;1.35;;
74124;SDS011;62475;52.192;5.396;2022-11-15T13:36:05;3.00;;;1.42;;
74124;SDS011;62475;52.192;5.396;2022-11-15T13:38:35;4.78;;;1.52;;
74124;SDS011;62475;52.192;5.396;2022-11-15T13:43:45;5.45;;;1.80;;
74124;SDS011;62475;52.192;5.396;2022-11-15T13:46:24;3.33;;;1.52;;
74124;SDS011;62475;52.192;5.396;2022-11-15T13:48:56;4.75;;;1.58;;
74124;SDS011;62475;52.192;5.396;2022-11-15T13:51:24;3.00;;;1.50;;
74124;SDS011;62475;52.192;5.396;2022-11-15T13:53:52;4.65;;;1.58;;
74124;SDS011;62475;52.192;5.396;2022-11-15T13:56:21;3.63;;;1.55;;
74124;SDS011;62475;52.192;5.396;2022-11-15T13:58:47;4.18;;;1.60;;
74124;SDS011;62475;52.192;5.396;2022-11-15T14:01:17;3.50;;;1.42;;
74124;SDS011;62475;52.192;5.396;2022-11-15T14:03:53;3.55;;;1.50;;
74124;SDS011;62475;52.192;5.396;2022-11-15T14:06:22;4.22;;;1.30;;
74124;SDS011;62475;52.192;5.396;2022-11-15T14:11:33;4.68;;;1.50;;
74124;SDS011;62475;52.192;5.396;2022-11-15T14:16:34;3.92;;;1.20;;
74124;SDS011;62475;52.192;5.396;2022-11-15T14:19:01;2.58;;;1.20;;
74124;SDS011;62475;52.192;5.396;2022-11-15T14:21:27;2.33;;;1.15;;
74124;SDS011;62475;52.192;5.396;2022-11-15T14:23:52;7.53;;;1.23;;
74124;SDS011;62475;52.192;5.396;2022-11-15T14:26:28;3.45;;;1.17;;
74124;SDS011;62475;52.192;5.396;2022-11-15T14:28:55;4.82;;;1.45;;
74124;SDS011;62475;52.192;5.396;2022-11-15T14:31:20;3.47;;;1.20;;
74124;SDS011;62475;52.192;5.396;2022-11-15T14:33:46;5.03;;;1.25;;
74124;SDS011;62475;52.192;5.396;2022-11-15T14:36:12;2.57;;;0.80;;
74124;SDS011;62475;52.192;5.396;2022-11-15T14:38:40;5.35;;;1.30;;
74124;SDS011;62475;52.192;5.396;2022-11-15T14:43:50;4.20;;;1.15;;
74124;SDS011;62475;52.192;5.396;2022-11-15T14:46:16;4.57;;;1.10;;
74124;SDS011;62475;52.192;5.396;2022-11-15T14:48:42;4.18;;;1.00;;
74124;SDS011;62475;52.192;5.396;2022-11-15T14:51:14;3.88;;;1.27;;
74124;SDS011;62475;52.192;5.396;2022-11-15T14:53:42;3.78;;;1.10;;
74124;SDS011;62475;52.192;5.396;2022-11-15T14:56:09;1.90;;;1.15;;
74124;SDS011;62475;52.192;5.396;2022-11-15T14:58:35;5.60;;;1.10;;
74124;SDS011;62475;52.192;5.396;2022-11-15T15:01:02;2.95;;;0.90;;
74124;SDS011;62475;52.192;5.396;2022-11-15T15:03:35;3.63;;;1.02;;
74124;SDS011;62475;52.192;5.396;2022-11-15T15:06:01;3.47;;;0.95;;
74124;SDS011;62475;52.192;5.396;2022-11-15T15:08:26;6.53;;;1.20;;
74124;SDS011;62475;52.192;5.396;2022-11-15T15:10:51;2.88;;;0.93;;
74124;SDS011;62475;52.192;5.396;2022-11-15T15:13:17;4.97;;;1.23;;
74124;SDS011;62475;52.192;5.396;2022-11-15T15:15:44;3.38;;;1.02;;
74124;SDS011;62475;52.192;5.396;2022-11-15T15:18:10;3.80;;;0.93;;
74124;SDS011;62475;52.192;5.396;2022-11-15T15:20:36;2.90;;;1.00;;
74124;SDS011;62475;52.192;5.396;2022-11-15T15:23:04;3.90;;;1.42;;
74124;SDS011;62475;52.192;5.396;2022-11-15T15:25:31;6.97;;;1.02;;
74124;SDS011;62475;52.192;5.396;2022-11-15T15:27:59;3.20;;;1.00;;
74124;SDS011;62475;52.192;5.396;2022-11-15T15:30:26;1.70;;;0.85;;
74124;SDS011;62475;52.192;5.396;2022-11-15T15:32:53;3.50;;;0.93;;
74124;SDS011;62475;52.192;5.396;2022-11-15T15:35:19;2.40;;;1.00;;
74124;SDS011;62475;52.192;5.396;2022-11-15T15:37:45;3.17;;;0.57;;
74124;SDS011;62475;52.192;5.396;2022-11-15T15:42:48;2.00;;;0.70;;
74124;SDS011;62475;52.192;5.396;2022-11-15T15:45:14;2.80;;;0.90;;
74124;SDS011;62475;52.192;5.396;2022-11-15T15:47:40;4.35;;;0.82;;
74124;SDS011;62475;52.192;5.396;2022-11-15T15:50:20;4.70;;;1.15;;
74124;SDS011;62475;52.192;5.396;2022-11-15T15:52:55;3.05;;;0.85;;
74124;SDS011;62475;52.192;5.396;2022-11-15T15:55:21;2.47;;;1.25;;
74124;SDS011;62475;52.192;5.396;2022-11-15T15:57:47;1.67;;;1.10;;
74124;SDS011;62475;52.192;5.396;2022-11-15T16:00:13;2.67;;;1.00;;
74124;SDS011;62475;52.192;5.396;2022-11-15T16:02:39;3.33;;;1.10;;
74124;SDS011;62475;52.192;5.396;2022-11-15T16:05:05;1.83;;;0.82;;
74124;SDS011;62475;52.192;5.396;2022-11-15T16:07:31;2.75;;;0.98;;
74124;SDS011;62475;52.192;5.396;2022-11-15T16:10:00;1.75;;;0.88;;
74124;SDS011;62475;52.192;5.396;2022-11-15T16:12:29;3.58;;;1.05;;
74124;SDS011;62475;52.192;5.396;2022-11-15T16:14:56;3.97;;;1.17;;
74124;SDS011;62475;52.192;5.396;2022-11-15T16:17:23;3.95;;;1.25;;
74124;SDS011;62475;52.192;5.396;2022-11-15T16:19:50;2.88;;;1.20;;
74124;SDS011;62475;52.192;5.396;2022-11-15T16:22:15;2.78;;;1.15;;
74124;SDS011;62475;52.192;5.396;2022-11-15T16:24:42;2.97;;;0.90;;
74124;SDS011;62475;52.192;5.396;2022-11-15T16:27:12;5.78;;;1.40;;
74124;SDS011;62475;52.192;5.396;2022-11-15T16:29:44;4.90;;;1.02;;
74124;SDS011;62475;52.192;5.396;2022-11-15T16:32:10;3.15;;;1.40;;
74124;SDS011;62475;52.192;5.396;2022-11-15T16:34:35;5.10;;;1.30;;
74124;SDS011;62475;52.192;5.396;2022-11-15T16:37:01;2.17;;;1.13;;
74124;SDS011;62475;52.192;5.396;2022-11-15T16:39:26;6.47;;;1.83;;
74124;SDS011;62475;52.192;5.396;2022-11-15T16:41:54;4.28;;;1.33;;
74124;SDS011;62475;52.192;5.396;2022-11-15T16:44:20;1.73;;;1.20;;
74124;SDS011;62475;52.192;5.396;2022-11-15T16:46:47;2.60;;;1.15;;
74124;SDS011;62475;52.192;5.396;2022-11-15T16:49:16;2.65;;;1.58;;
74124;SDS011;62475;52.192;5.396;2022-11-15T16:51:46;2.88;;;1.35;;
74124;SDS011;62475;52.192;5.396;2022-11-15T16:54:12;4.28;;;1.42;;
74124;SDS011;62475;52.192;5.396;2022-11-15T16:56:38;4.05;;;1.25;;
74124;SDS011;62475;52.192;5.396;2022-11-15T16:59:04;4.22;;;3.15;;
74124;SDS011;62475;52.192;5.396;2022-11-15T17:01:31;3.30;;;1.58;;